Time,TemperatureF,DewpointF,PressureIn,WindDirection,WindDirectionDegrees,WindSpeedMPH,WindSpeedGustMPH,Humidity,HourlyPrecipIn,Conditions,Clouds,dailyrainin,SoftwareType,DateUTC
2013-01-10 00:03:00,35.0,33.0,-100.00,NNE,25,1.0,2.0,94,-99.99,,,-99.99,,2013-01-10 05:03:00,
2013-01-10 00:11:00,35.0,34.0,-100.00,ESE,105,0.0,2.0,94,-99.99,,,-99.99,,2013-01-10 05:11:00,
2013-01-10 00:12:00,36.0,34.0,-100.00,ENE,75,0.0,2.0,94,-99.99,,,-99.99,,2013-01-10 05:12:00,
2013-01-10 00:22:00,36.0,34.0,-100.00,ENE,75,0.0,2.0,94,-99.99,,,-99.99,,2013-01-10 05:22:00,
2013-01-10 00:33:00,36.0,34.0,-100.00,NE,45,0.0,2.0,94,-99.99,,,-99.99,,2013-01-10 05:33:00,
2013-01-10 00:42:00,35.0,34.0,-100.00,ESE,105,0.0,2.0,94,-99.99,,,-99.99,,2013-01-10 05:42:00,
2013-01-10 00:52:00,35.0,34.0,-100.00,ESE,105,0.0,2.0,94,-99.99,,,-99.99,,2013-01-10 05:52:00,
2013-01-10 01:02:00,35.0,34.0,-100.00,ESE,105,0.0,2.0,94,-99.99,,,-99.99,,2013-01-10 06:02:00,
2013-01-10 01:22:00,35.0,33.0,-100.00,ESE,120,1.0,1.0,95,-99.99,,,-99.99,,2013-01-10 06:22:00,
2013-01-10 01:32:00,35.0,33.0,-100.00,ESE,120,1.0,1.0,95,-99.99,,,-99.99,,2013-01-10 06:32:00,
2013-01-10 01:42:00,35.0,33.0,-100.00,ESE,120,1.0,1.0,95,-99.99,,,-99.99,,2013-01-10 06:42:00,
2013-01-10 01:52:00,35.0,33.0,-100.00,ESE,120,1.0,1.0,95,-99.99,,,-99.99,,2013-01-10 06:52:00,
2013-01-10 02:02:00,35.0,33.0,-100.00,ESE,120,1.0,1.0,95,-99.99,,,-99.99,,2013-01-10 07:02:00,
2013-01-10 02:22:00,35.0,34.0,-100.00,West,270,0.0,1.0,95,-99.99,,,-99.99,,2013-01-10 07:22:00,
2013-01-10 02:32:00,35.0,34.0,-100.00,ENE,60,0.0,1.0,95,-99.99,,,-99.99,,2013-01-10 07:32:00,
2013-01-10 02:42:00,35.0,34.0,-100.00,ENE,60,0.0,1.0,95,-99.99,,,-99.99,,2013-01-10 07:42:00,
2013-01-10 02:52:00,35.0,34.0,-100.00,East,95,0.0,0.0,95,-99.99,,,-99.99,,2013-01-10 07:52:00,
2013-01-10 03:02:00,35.0,34.0,-100.00,East,95,0.0,0.0,95,-99.99,,,-99.99,,2013-01-10 08:02:00,
2013-01-10 03:12:00,35.0,34.0,-100.00,East,95,0.0,0.0,95,-99.99,,,-99.99,,2013-01-10 08:12:00,
2013-01-10 03:22:00,35.0,34.0,-100.00,East,95,0.0,0.0,95,-99.99,,,-99.99,,2013-01-10 08:22:00,
2013-01-10 03:32:00,36.0,35.0,-100.00,SSE,155,0.0,0.0,95,-99.99,,,-99.99,,2013-01-10 08:32:00,
2013-01-10 03:42:00,36.0,35.0,-100.00,SSE,155,0.0,0.0,95,-99.99,,,-99.99,,2013-01-10 08:42:00,
2013-01-10 03:53:00,37.0,35.0,-100.00,ENE,70,1.0,5.0,95,-99.99,,,-99.99,,2013-01-10 08:53:00,
2013-01-10 04:02:00,37.0,35.0,-100.00,ENE,70,1.0,5.0,95,-99.99,,,-99.99,,2013-01-10 09:02:00,
2013-01-10 04:12:00,37.0,35.0,-100.00,ENE,70,1.0,5.0,95,-99.99,,,-99.99,,2013-01-10 09:12:00,
2013-01-10 04:22:00,40.0,37.0,-100.00,NE,40,1.0,2.0,89,-99.99,,,-99.99,,2013-01-10 09:22:00,
2013-01-10 04:32:00,40.0,37.0,-100.00,NE,40,1.0,2.0,89,-99.99,,,-99.99,,2013-01-10 09:32:00,
2013-01-10 04:43:00,40.0,37.0,-100.00,NE,40,1.0,2.0,89,-99.99,,,-99.99,,2013-01-10 09:43:00,
2013-01-10 04:52:00,40.0,37.0,-100.00,NE,40,1.0,2.0,89,-99.99,,,-99.99,,2013-01-10 09:52:00,
2013-01-10 05:03:00,40.0,37.0,-100.00,NE,40,1.0,2.0,89,-99.99,,,-99.99,,2013-01-10 10:03:00,
2013-01-10 05:22:00,42.0,32.0,-100.00,ENE,70,2.0,3.0,66,-99.99,,,-99.99,,2013-01-10 10:22:00,
2013-01-10 05:33:00,42.0,32.0,-100.00,ENE,70,2.0,3.0,66,-99.99,,,-99.99,,2013-01-10 10:33:00,
2013-01-10 05:42:00,42.0,32.0,-100.00,ENE,70,2.0,3.0,66,-99.99,,,-99.99,,2013-01-10 10:42:00,
2013-01-10 05:52:00,44.0,29.0,-100.00,East,85,3.0,6.0,54,-99.99,,,-99.99,,2013-01-10 10:52:00,
2013-01-10 06:02:00,44.0,29.0,-100.00,East,85,3.0,6.0,54,-99.99,,,-99.99,,2013-01-10 11:02:00,
2013-01-10 06:12:00,45.0,28.0,-100.00,ENE,70,5.0,7.0,51,-99.99,,,-99.99,,2013-01-10 11:12:00,
2013-01-10 06:22:00,45.0,28.0,-100.00,ENE,70,4.0,8.0,51,-99.99,,,-99.99,,2013-01-10 11:22:00,
2013-01-10 06:32:00,45.0,28.0,-100.00,ENE,70,4.0,8.0,51,-99.99,,,-99.99,,2013-01-10 11:32:00,
2013-01-10 06:42:00,45.0,28.0,-100.00,ENE,65,4.0,6.0,52,-99.99,,,-99.99,,2013-01-10 11:42:00,
2013-01-10 06:52:00,45.0,29.0,-100.00,ENE,70,4.0,7.0,53,-99.99,,,-99.99,,2013-01-10 11:52:00,
2013-01-10 07:02:00,45.0,29.0,-100.00,ENE,70,4.0,7.0,53,-99.99,,,-99.99,,2013-01-10 12:02:00,
2013-01-10 07:12:00,45.0,29.0,-100.00,ENE,70,4.0,7.0,53,-99.99,,,-99.99,,2013-01-10 12:12:00,
2013-01-10 07:22:00,45.0,29.0,-100.00,ENE,70,4.0,7.0,53,-99.99,,,-99.99,,2013-01-10 12:22:00,
2013-01-10 07:32:00,45.0,30.0,-100.00,ENE,60,6.0,11.0,56,-99.99,,,-99.99,,2013-01-10 12:32:00,
2013-01-10 07:43:00,45.0,30.0,-100.00,ENE,60,6.0,11.0,56,-99.99,,,-99.99,,2013-01-10 12:43:00,
2013-01-10 07:53:00,46.0,30.0,-100.00,ENE,75,6.0,11.0,54,-99.99,,,-99.99,,2013-01-10 12:53:00,
2013-01-10 08:02:00,46.0,30.0,-100.00,ENE,75,6.0,11.0,54,-99.99,,,-99.99,,2013-01-10 13:02:00,
2013-01-10 08:12:00,46.0,30.0,-100.00,ENE,75,6.0,11.0,54,-99.99,,,-99.99,,2013-01-10 13:12:00,
2013-01-10 08:22:00,46.0,30.0,-100.00,ENE,75,6.0,11.0,54,-99.99,,,-99.99,,2013-01-10 13:22:00,
2013-01-10 08:32:00,46.0,30.0,-100.00,ENE,75,6.0,11.0,54,-99.99,,,-99.99,,2013-01-10 13:32:00,
2013-01-10 08:53:00,46.0,28.0,-100.00,NE,50,6.0,9.0,48,-99.99,,,-99.99,,2013-01-10 13:53:00,
2013-01-10 09:02:00,46.0,28.0,-100.00,NE,50,6.0,9.0,48,-99.99,,,-99.99,,2013-01-10 14:02:00,
2013-01-10 09:12:00,46.0,28.0,-100.00,NE,50,6.0,9.0,48,-99.99,,,-99.99,,2013-01-10 14:12:00,
2013-01-10 09:22:00,46.0,28.0,-100.00,NE,50,6.0,9.0,48,-99.99,,,-99.99,,2013-01-10 14:22:00,
2013-01-10 09:32:00,46.0,28.0,-100.00,NE,50,6.0,9.0,48,-99.99,,,-99.99,,2013-01-10 14:32:00,
2013-01-10 10:43:00,45.0,37.0,-100.00,East,80,4.0,10.0,75,-99.99,,,-99.99,,2013-01-10 15:43:00,
2013-01-10 10:53:00,45.0,37.0,-100.00,East,80,4.0,10.0,75,-99.99,,,-99.99,,2013-01-10 15:53:00,
2013-01-10 11:03:00,45.0,37.0,-100.00,East,80,4.0,10.0,75,-99.99,,,-99.99,,2013-01-10 16:03:00,
2013-01-10 11:13:00,45.0,37.0,-100.00,East,80,4.0,10.0,75,-99.99,,,-99.99,,2013-01-10 16:13:00,
2013-01-10 11:22:00,44.0,40.0,-100.00,ESE,110,2.0,9.0,86,-99.99,,,-99.99,,2013-01-10 16:22:00,
2013-01-10 11:33:00,44.0,40.0,-100.00,ESE,110,2.0,9.0,86,-99.99,,,-99.99,,2013-01-10 16:33:00,
2013-01-10 11:43:00,44.0,40.0,-100.00,ESE,110,2.0,9.0,86,-99.99,,,-99.99,,2013-01-10 16:43:00,
2013-01-10 11:53:00,44.0,40.0,-100.00,ESE,110,2.0,9.0,86,-99.99,,,-99.99,,2013-01-10 16:53:00,
2013-01-10 12:03:00,44.0,40.0,-100.00,ESE,110,2.0,9.0,86,-99.99,,,-99.99,,2013-01-10 17:03:00,
2013-01-10 13:23:00,45.0,44.0,-100.00,East,95,4.0,9.0,93,-99.99,,,-99.99,,2013-01-10 18:23:00,
2013-01-10 13:33:00,46.0,44.0,-100.00,East,95,3.0,11.0,93,-99.99,,,-99.99,,2013-01-10 18:33:00,
2013-01-10 13:43:00,46.0,44.0,-100.00,East,95,3.0,11.0,93,-99.99,,,-99.99,,2013-01-10 18:43:00,
2013-01-10 13:53:00,46.0,44.0,-100.00,East,95,3.0,11.0,93,-99.99,,,-99.99,,2013-01-10 18:53:00,
2013-01-10 14:03:00,46.0,44.0,-100.00,East,95,3.0,11.0,93,-99.99,,,-99.99,,2013-01-10 19:03:00,
2013-01-10 14:13:00,46.0,44.0,-100.00,East,95,3.0,11.0,93,-99.99,,,-99.99,,2013-01-10 19:13:00,
2013-01-10 16:23:00,51.0,49.0,-100.00,East,80,3.0,9.0,91,-99.99,,,-99.99,,2013-01-10 21:23:00,
2013-01-10 16:33:00,51.0,49.0,-100.00,East,80,3.0,9.0,91,-99.99,,,-99.99,,2013-01-10 21:33:00,
2013-01-10 16:43:00,51.0,49.0,-100.00,East,80,3.0,9.0,91,-99.99,,,-99.99,,2013-01-10 21:43:00,
2013-01-10 16:53:00,51.0,49.0,-100.00,East,80,3.0,9.0,91,-99.99,,,-99.99,,2013-01-10 21:53:00,
2013-01-10 17:03:00,51.0,49.0,-100.00,East,80,3.0,9.0,91,-99.99,,,-99.99,,2013-01-10 22:03:00,
2013-01-10 17:27:00,53.0,50.0,-100.00,ESE,115,2.0,11.0,91,-99.99,,,-99.99,,2013-01-10 22:27:00,
2013-01-10 17:34:00,53.0,51.0,-100.00,SE,140,4.0,11.0,91,-99.99,,,-99.99,,2013-01-10 22:34:00,
2013-01-10 17:44:00,53.0,51.0,-100.00,SE,140,4.0,11.0,91,-99.99,,,-99.99,,2013-01-10 22:44:00,
2013-01-10 18:02:00,53.0,51.0,-100.00,SE,140,4.0,11.0,91,-99.99,,,-99.99,,2013-01-10 23:02:00,
2013-01-10 18:12:00,53.0,51.0,-100.00,SE,140,4.0,11.0,91,-99.99,,,-99.99,,2013-01-10 23:12:00,
2013-01-10 19:53:00,54.0,51.0,-100.00,SE,125,1.0,7.0,91,-99.99,,,-99.99,,2013-01-11 00:53:00,
2013-01-10 20:03:00,54.0,51.0,-100.00,SE,125,1.0,7.0,91,-99.99,,,-99.99,,2013-01-11 01:03:00,
2013-01-10 20:13:00,54.0,51.0,-100.00,SE,125,1.0,7.0,91,-99.99,,,-99.99,,2013-01-11 01:13:00,
2013-01-10 20:23:00,54.0,51.0,-100.00,SE,125,1.0,7.0,91,-99.99,,,-99.99,,2013-01-11 01:23:00,
2013-01-10 20:33:00,54.0,51.0,-100.00,SE,125,1.0,7.0,91,-99.99,,,-99.99,,2013-01-11 01:33:00,